ADDS METAR Data INFO
IDs: Format: Raw Decoded Include TAF

Data at: 0509 UTC 23 May 2017

KRAS 230455Z AUTO 04007KT 7SM SCT012 BKN017 OVC025 26/24 A2985 RMK AO2 T02550238
KRAS 230435Z AUTO 05003KT 10SM BKN016 OVC021 25/23 A2986 RMK AO2 T02510234
KRAS 230415Z AUTO 00000KT 10SM BKN016 OVC022 25/24 A2986 RMK AO2 T02540236
KRAS 230355Z AUTO 00000KT 10SM SCT018 BKN085 26/23 A2986 RMK AO2 T02550232
KRAS 230335Z AUTO 00000KT 10SM SCT085 26/23 A2985 RMK AO2 T02550233
KRAS 230315Z AUTO 00000KT 7SM CLR 26/23 A2983 RMK AO2 T02550233
KRAS 230255Z AUTO 10003KT 7SM CLR 25/23 A2982 RMK AO2 T02540232
KRAS 230235Z AUTO 10003KT 7SM CLR 26/23 A2981 RMK AO2 T02550230
KRAS 230215Z AUTO 10003KT 4SM HZ CLR 26/23 A2981 RMK AO2 T02550230
KRAS 230155Z AUTO 00000KT 7SM CLR 26/23 A2982 RMK AO2 T02580230
KRAS 230135Z AUTO 00000KT 10SM CLR 26/23 A2981 RMK AO2 T02600230
KRAS 230115Z AUTO 00000KT 10SM CLR 26/23 A2981 RMK AO2 T02620230
KRAS 230055Z AUTO 01003KT 10SM CLR 27/23 A2981 RMK AO2 T02650228
KRAS 230035Z AUTO 36004KT 10SM CLR 27/23 A2980 RMK AO2 T02670226
KRAS 230015Z AUTO 35005KT 10SM CLR 27/23 A2980 RMK AO2 T02670225
KRAS 222355Z AUTO 01003KT 10SM SCT075 SCT090 27/23 A2980 RMK AO2 T02670228 10268 20245
KRAS 222335Z AUTO 35005KT 10SM SCT075 BKN100 27/23 A2981 RMK AO2 T02660230
KRAS 222315Z AUTO 35004KT 10SM BKN075 OVC090 27/23 A2981 RMK AO2 T02660225
KRAS 222255Z AUTO 00000KT 10SM BKN075 BKN085 BKN110 26/22 A2982 RMK AO2 T02630224
KRAS 222235Z AUTO 00000KT 10SM BKN060 BKN080 BKN090 26/23 A2983 RMK AO2 T02620226
KRAS 222215Z AUTO 19004KT 10SM BKN060 OVC075 26/23 A2984 RMK AO2 T02620232
KRAS 222155Z AUTO 00000KT 10SM OVC060 26/23 A2984 RMK AO2 T02600226
KRAS 222135Z AUTO 19005KT 10SM SCT010 OVC060 26/23 A2985 RMK AO2 T02630232
KRAS 222115Z AUTO 18003KT 10SM SCT008 OVC060 26/24 A2985 RMK AO2 LTG DSNT E T02600235
KRAS 222055Z AUTO 17005KT 10SM SCT008 OVC060 26/24 A2986 RMK AO2 T02590236
KRAS 222035Z AUTO 15006KT 10SM OVC060 26/24 A2986 RMK AO2 T02600235
KRAS 222015Z AUTO 00000KT 10SM OVC060 26/23 A2986 RMK AO2 LTG DSNT SE T02600232
KRAS 221955Z AUTO 13004KT 10SM OVC060 26/23 A2987 RMK AO2 T02620228
KRAS 221935Z AUTO 15004KT 10SM OVC050 26/23 A2987 RMK AO2 T02600231
KRAS 221915Z AUTO 14004KT 10SM BKN050 26/24 A2988 RMK AO2 T02610235
KRAS 221855Z AUTO 16004KT 10SM OVC050 25/23 A2989 RMK AO2 T02530233
KRAS 221835Z AUTO 14008KT 10SM OVC050 25/23 A2990 RMK AO2 LTG DSNT SE T02500230
KRAS 221815Z AUTO 14008KT 10SM RA SCT034 SCT040 OVC050 25/23 A2990 RMK AO2 LTG DSNT E T02470228
KRAS 221755Z AUTO 12007KT 7SM SCT007 SCT017 OVC050 25/23 A2991 RMK AO2 LTG DSNT SE P0002 60014 T02460229 10255 20218
KRAS 221735Z AUTO 13008KT 7SM VCTS BKN007 BKN016 OVC050 25/23 A2991 RMK AO2 LTG DSNT E AND SE P0001 T02460225
KRAS 221715Z AUTO 14009KT 7SM BKN007 BKN011 OVC050 25/23 A2991 RMK AO2 LTG DSNT E AND SE T02510229
KRAS 221655Z AUTO 14013KT 4SM BR BKN007 BKN010 OVC050 25/23 A2992 RMK AO2 LTG DSNT SE T02520230
KRAS 221635Z AUTO 14011KT 10SM OVC010 26/23 A2992 RMK AO2 T02550232
KRAS 221615Z AUTO 14010G15KT 10SM BKN010 BKN050 OVC060 25/23 A2993 RMK AO2 LTG DSNT E AND SE T02520229
KRAS 221555Z AUTO 08007KT 10SM BKN010 BKN050 OVC065 25/23 A2992 RMK AO2 LTG DSNT SE T02540232
KRAS 221535Z AUTO 06011G14KT 10SM BKN008 BKN050 OVC070 25/23 A2993 RMK AO2 LTG DSNT E T02510231
KRAS 221515Z AUTO 07010KT 10SM SCT008 SCT050 BKN070 25/23 A2993 RMK AO2 LTG DSNT E AND SE T02490232
KRAS 221455Z AUTO 07010G14KT 10SM SCT006 SCT060 SCT070 25/24 A2993 RMK AO2 LTG DSNT E AND SE P0001 60012 T02490235
KRAS 221435Z AUTO 09012G17KT 10SM SCT060 SCT070 24/23 A2992 RMK AO2 LTG DSNT E AND SE P0001 T02430232
KRAS 221415Z AUTO 07010G17KT 7SM SCT006 SCT020 BKN070 24/23 A2992 RMK AO2 LTG DSNT E P0001 T02420232
KRAS 221355Z AUTO 06011G16KT 4SM -RA SCT006 BKN048 OVC060 24/23 A2992 RMK AO2 LTG DSNT NE AND E P0004 T02410231
KRAS 221335Z AUTO 03007KT 10SM SCT041 BKN048 BKN055 24/23 A2992 RMK AO2 LTG DSNT NE AND E T02370229
KRAS 221315Z AUTO 02012KT 10SM VCTS SCT005 BKN039 OVC046 23/22 A2992 RMK AO2 LTG DSNT NE AND E T02310223
KRAS 221255Z AUTO 03008KT 10SM -DZ SCT007 BKN032 OVC070 23/22 A2992 RMK AO2 LTG DSNT E AND SE P0007 T02300221
KRAS 221235Z AUTO 01012KT 4SM RA BKN007 BKN022 OVC029 23/22 A2992 RMK AO2 LTG DSNT E P0006 T02250215
KRAS 221215Z AUTO 02012G20KT 7SM RA SCT007 BKN029 OVC033 22/21 A2991 RMK AO2 LTG DSNT NE THRU S P0001 T02210211
KRAS 221155Z AUTO 36018G23KT 2 1/2SM -VCTSRA SCT009 BKN022 OVC030 22/21 A2990 RMK AO2 VIS 1 1/4V5 LTG DSNT NE THRU S P0045 60066 70066 T02170206 10262 20215
KRAS 221135Z AUTO 01022G25KT 1SM RA BKN007 OVC011 22/21 A2990 RMK AO2 LTG DSNT ALQS P0037 T02160207
KRAS 221115Z AUTO 34020G27KT 3SM -RA BKN007 BKN014 OVC018 22/21 A2990 RMK AO2 LTG DSNT NE THRU SE P0006 T02230212
KRAS 221055Z AUTO 28007KT 230V300 5SM VCTS BR SCT009 BKN014 OVC026 26/25 A2990 RMK AO2 LTG DSNT N AND NE P0007 T02570247
KRAS 221035Z AUTO 20011KT 3SM RA BKN009 OVC015 26/25 A2988 RMK AO2 LTG DSNT N AND NE P0007 T02600250
KRAS 221015Z AUTO 20009KT 5SM BR BKN009 BKN016 OVC024 26/25 A2989 RMK AO2 LTG DSNT NW THRU NE P0001 T02600250
KRAS 220955Z AUTO 20009KT 5SM BR SCT009 BKN014 BKN042 26/25 A2989 RMK AO2 LTG DSNT NW THRU NE T02600250
KRAS 220935Z AUTO 19012G16KT 5SM BR BKN007 BKN037 BKN050 26/25 A2989 RMK AO2 LTG DSNT NW THRU NE T02600250
KRAS 220915Z AUTO 19011G17KT 5SM BR BKN007 BKN039 OVC050 26/25 A2989 RMK AO2 LTG DSNT N AND NE T02600250
KRAS 220855Z AUTO 18011KT 5SM BR BKN007 BKN012 OVC022 26/25 A2988 RMK AO2 LTG DSNT NW THRU NE P0001 60014 T02600250
KRAS 220835Z AUTO 19010KT 5SM VCTS BR BKN009 OVC012 26/25 A2989 RMK AO2 LTG DSNT NE P0001 T02600250
KRAS 220815Z AUTO 17008KT 7SM SCT007 BKN013 OVC019 26/25 A2990 RMK AO2 LTG DSNT NE AND NW P0001 T02580248
KRAS 220755Z AUTO 16010KT 5SM VCTS BR BKN007 BKN014 OVC019 26/25 A2991 RMK AO2 LTG DSNT NE P0013 T02600250
KRAS 220735Z AUTO 16010KT 4SM -RA OVC007 26/25 A2992 RMK AO2 LTG DSNT NE P0013 T02600251
KRAS 220715Z AUTO 14009KT 2 1/2SM -RA BKN005 OVC010 26/25 A2994 RMK AO2 LTG DSNT NW THRU NE P0008 T02600251
KRAS 220655Z AUTO 13007KT 4SM -RA BKN007 OVC010 26/25 A2995 RMK AO2 LTG DSNT NE T02610251
KRAS 220635Z AUTO 12006KT 4SM -RA OVC007 26/25 A2996 RMK AO2 T02620251
KRAS 220615Z AUTO 09005KT 5SM BR OVC007 26/25 A2996 RMK AO2 T02620250
KRAS 220555Z AUTO 09007KT 5SM BR OVC007 26/25 A2996 RMK AO2 T02610250 10263 20260 402890256
KRAS 220535Z AUTO 08010KT 5SM BR OVC007 26/25 A2994 RMK AO2 T02610250
KRAS 220515Z AUTO 08008KT 5SM BR BKN007 BKN011 OVC023 26/25 A2995 RMK AO2 T02620250
KRAS 220455Z AUTO 08008G15KT 5SM BR BKN007 OVC015 26/25 A2995 RMK AO2 T02610248
KRAS 220435Z AUTO 08010G15KT 7SM OVC009 26/25 A2996 RMK AO2 T02620248
KRAS 220415Z AUTO 07009G16KT 7SM OVC007 26/25 A2995 RMK AO2 LTG DSNT NE T02620248
KRAS 220355Z AUTO 06011KT 7SM OVC007 26/25 A2996 RMK AO2 T02620247
KRAS 220335Z AUTO 07011KT 7SM BKN007 BKN019 BKN025 26/25 A2996 RMK AO2 T02620247
KRAS 220315Z AUTO 07009KT 7SM SCT007 SCT013 BKN019 26/25 A2998 RMK AO2 T02610246
KRAS 220255Z AUTO 06009KT 7SM BKN007 BKN013 BKN019 26/25 A2995 RMK AO2 LTG DSNT S T02610247
KRAS 220235Z AUTO 10009G17KT 7SM BKN007 BKN012 BKN019 26/25 A2997 RMK AO2 T02620248
KRAS 220215Z AUTO 08017G22KT 7SM SCT007 SCT012 26/25 A2991 RMK AO2 T02620246
KRAS 220155Z AUTO 10010G15KT 7SM SCT007 26/25 A2996 RMK AO2 T02620245
KRAS 220135Z AUTO 08013G18KT 7SM CLR 26/24 A2992 RMK AO2 LTG DSNT SW AND W T02620243
KRAS 220115Z AUTO 08013G18KT 7SM CLR 26/24 A2992 RMK AO2 LTG DSNT SW T02620243
KRAS 220055Z AUTO 08014G19KT 7SM SCT007 26/24 A2990 RMK AO2 LTG DSNT SW AND W T02610242
KRAS 220035Z AUTO 07013G20KT 7SM BKN007 26/24 A2990 RMK AO2 LTG DSNT SW T02610242
KRAS 220015Z AUTO 06013KT 7SM BKN007 26/24 A2991 RMK AO2 LTG DSNT N T02630244
KRAS 212355Z AUTO 07010G15KT 7SM BKN007 26/24 A2991 RMK AO2 T02630244 10285 20263
KRAS 212335Z AUTO 07014G18KT 10SM SCT007 27/24 A2991 RMK AO2 T02650242
KRAS 212315Z AUTO 07007KT 10SM CLR 27/24 A2993 RMK AO2 LTG DSNT N T02680241
KRAS 212255Z AUTO 09007KT 10SM CLR 27/24 A2992 RMK AO2 LTG DSNT SW T02680240
KRAS 212235Z AUTO 09008KT 10SM CLR 27/24 A2991 RMK AO2 LTG DSNT NE T02710242
KRAS 212215Z AUTO 10008KT 10SM SCT007 27/24 A2991 RMK AO2 LTG DSNT W T02720242
KRAS 212155Z AUTO 10008KT 10SM SCT007 28/24 A2991 RMK AO2 T02750243
KRAS 212135Z AUTO 10008KT 10SM BKN007 28/24 A2992 RMK AO2 T02750242
KRAS 212115Z AUTO 10009KT 10SM OVC007 28/24 A2991 RMK AO2 T02760243
KRAS 212055Z AUTO 11011KT 10SM OVC007 28/24 A2991 RMK AO2 LTG DSNT NW T02800243
KRAS 212035Z AUTO 10010KT 10SM OVC007 28/25 A2991 RMK AO2 LTG DSNT N T02840245
KRAS 212015Z AUTO 09012KT 10SM OVC007 28/24 A2993 RMK AO2 T02830244
KRAS 211955Z AUTO 09011KT 10SM BKN009 BKN012 28/24 A2994 RMK AO2 T02810243
KRAS 211935Z AUTO 09012G16KT 10SM BKN009 BKN012 28/24 A2995 RMK AO2 T02820244
KRAS 211915Z AUTO 09011G14KT 10SM BKN009 28/24 A2996 RMK AO2 LTG DSNT N AND NE T02820244
KRAS 211855Z AUTO 09008KT 10SM BKN009 28/25 A2996 RMK AO2 LTG DSNT N T02810245
KRAS 211835Z AUTO 09010KT 10SM BKN009 28/24 A2996 RMK AO2 LTG DSNT N T02770242
KRAS 211815Z AUTO 10011KT 10SM BKN007 OVC012 28/25 A2997 RMK AO2 LTG DSNT N T02800245
KRAS 211755Z AUTO 08011KT 10SM OVC007 28/25 A2997 RMK AO2 LTG DSNT N T02790245 10289 20256
KRAS 211735Z AUTO 08008KT 10SM BKN007 29/25 A2998 RMK AO2 LTG DSNT N T02870248
KRAS 211715Z AUTO 11010KT 10SM CLR 29/25 A2997 RMK AO2 T02850248


Page loaded:  05:09 UTC  |   10:09 PM Pacific  |   11:09 PM Mountain  |   12:09 AM Central  |   01:09 AM Eastern

 

ADVISORIES

FORECASTS

FORECASTS

OBSERVATIONS

USER TOOLS

ABOUT US